Terminal Aerodrome Forecast
Issued by NWS Sioux Falls, SD

Home | Current Version | Previous Version | Graphics & Text | Print | Product List | Glossary Off
Versions: 1 2 3 4 5 6 7 8 9 10 11 12 13 14 15 16 17 18

000
FTUS43 KFSD 301525 AAA
TAFFSD
TAF AMD
KFSD 301525Z 3015/3112 18009KT P6SM SCT250
      TEMPO 3015/3017 4SM BR OVC008
     FM302000 18013G19KT P6SM SKC
     FM310100 18011KT P6SM SKC=

USA.gov is the U.S. government's official web portal to all federal, state and local government web resources and services.